sensor_id;sensor_type;location;lat;lon;timestamp;P1;durP1;ratioP1;P2;durP2;ratioP2
71351;SDS011;59159;51.652;4.864;2022-12-18T00:01:03;15.68;;;7.45;;
71351;SDS011;59159;51.652;4.864;2022-12-18T00:03:34;18.30;;;8.00;;
71351;SDS011;59159;51.652;4.864;2022-12-18T00:06:00;16.77;;;8.10;;
71351;SDS011;59159;51.652;4.864;2022-12-18T00:08:27;15.88;;;7.47;;
71351;SDS011;59159;51.652;4.864;2022-12-18T00:10:53;15.47;;;7.37;;
71351;SDS011;59159;51.652;4.864;2022-12-18T00:13:20;16.33;;;8.00;;
71351;SDS011;59159;51.652;4.864;2022-12-18T00:15:45;16.63;;;7.63;;
71351;SDS011;59159;51.652;4.864;2022-12-18T00:18:11;17.07;;;7.57;;
71351;SDS011;59159;51.652;4.864;2022-12-18T00:20:38;15.82;;;7.88;;
71351;SDS011;59159;51.652;4.864;2022-12-18T00:23:05;16.95;;;7.90;;
71351;SDS011;59159;51.652;4.864;2022-12-18T00:25:35;15.63;;;7.57;;
71351;SDS011;59159;51.652;4.864;2022-12-18T00:28:01;15.90;;;7.90;;
71351;SDS011;59159;51.652;4.864;2022-12-18T00:30:28;15.68;;;6.97;;
71351;SDS011;59159;51.652;4.864;2022-12-18T00:32:54;17.88;;;7.55;;
71351;SDS011;59159;51.652;4.864;2022-12-18T00:35:20;17.17;;;7.83;;
71351;SDS011;59159;51.652;4.864;2022-12-18T00:37:46;15.75;;;6.70;;
71351;SDS011;59159;51.652;4.864;2022-12-18T00:40:12;16.35;;;7.85;;
71351;SDS011;59159;51.652;4.864;2022-12-18T00:42:38;17.53;;;8.17;;
71351;SDS011;59159;51.652;4.864;2022-12-18T00:45:26;15.88;;;7.28;;
71351;SDS011;59159;51.652;4.864;2022-12-18T00:47:52;17.88;;;7.60;;
71351;SDS011;59159;51.652;4.864;2022-12-18T00:50:18;17.90;;;7.75;;
71351;SDS011;59159;51.652;4.864;2022-12-18T00:52:45;15.87;;;7.37;;
71351;SDS011;59159;51.652;4.864;2022-12-18T00:55:11;16.52;;;7.72;;
71351;SDS011;59159;51.652;4.864;2022-12-18T00:57:37;18.63;;;8.00;;
71351;SDS011;59159;51.652;4.864;2022-12-18T01:00:04;16.90;;;7.30;;
71351;SDS011;59159;51.652;4.864;2022-12-18T01:02:30;18.25;;;8.45;;
71351;SDS011;59159;51.652;4.864;2022-12-18T01:04:56;17.13;;;7.75;;
71351;SDS011;59159;51.652;4.864;2022-12-18T01:07:22;16.77;;;7.67;;
71351;SDS011;59159;51.652;4.864;2022-12-18T01:09:48;19.00;;;7.60;;
71351;SDS011;59159;51.652;4.864;2022-12-18T01:12:14;15.18;;;6.93;;
71351;SDS011;59159;51.652;4.864;2022-12-18T01:14:40;18.05;;;8.23;;
71351;SDS011;59159;51.652;4.864;2022-12-18T01:17:06;17.43;;;8.27;;
71351;SDS011;59159;51.652;4.864;2022-12-18T01:19:32;18.75;;;7.90;;
71351;SDS011;59159;51.652;4.864;2022-12-18T01:21:58;17.00;;;7.95;;
71351;SDS011;59159;51.652;4.864;2022-12-18T01:24:24;16.53;;;8.03;;
71351;SDS011;59159;51.652;4.864;2022-12-18T01:26:50;16.95;;;7.93;;
71351;SDS011;59159;51.652;4.864;2022-12-18T01:29:16;16.92;;;8.13;;
71351;SDS011;59159;51.652;4.864;2022-12-18T01:31:42;16.40;;;7.73;;
71351;SDS011;59159;51.652;4.864;2022-12-18T01:34:08;18.70;;;8.73;;
71351;SDS011;59159;51.652;4.864;2022-12-18T01:36:35;17.30;;;8.23;;
71351;SDS011;59159;51.652;4.864;2022-12-18T01:39:03;17.25;;;7.57;;
71351;SDS011;59159;51.652;4.864;2022-12-18T01:41:30;16.77;;;8.47;;
71351;SDS011;59159;51.652;4.864;2022-12-18T01:47:00;18.50;;;7.80;;
71351;SDS011;59159;51.652;4.864;2022-12-18T01:49:26;19.00;;;8.40;;
71351;SDS011;59159;51.652;4.864;2022-12-18T01:51:52;16.58;;;7.53;;
71351;SDS011;59159;51.652;4.864;2022-12-18T01:54:18;16.50;;;7.80;;
71351;SDS011;59159;51.652;4.864;2022-12-18T01:56:44;18.80;;;8.73;;
71351;SDS011;59159;51.652;4.864;2022-12-18T01:59:11;18.17;;;8.52;;
71351;SDS011;59159;51.652;4.864;2022-12-18T02:01:38;17.73;;;7.63;;
71351;SDS011;59159;51.652;4.864;2022-12-18T02:04:37;16.38;;;7.65;;
71351;SDS011;59159;51.652;4.864;2022-12-18T02:09:43;16.73;;;8.27;;
71351;SDS011;59159;51.652;4.864;2022-12-18T02:14:42;17.80;;;8.13;;
71351;SDS011;59159;51.652;4.864;2022-12-18T02:17:11;19.63;;;7.95;;
71351;SDS011;59159;51.652;4.864;2022-12-18T02:22:39;15.43;;;7.00;;
71351;SDS011;59159;51.652;4.864;2022-12-18T02:27:53;17.23;;;7.50;;
71351;SDS011;59159;51.652;4.864;2022-12-18T02:30:21;14.05;;;6.80;;
71351;SDS011;59159;51.652;4.864;2022-12-18T02:32:49;16.00;;;7.80;;
71351;SDS011;59159;51.652;4.864;2022-12-18T02:35:17;16.58;;;7.57;;
71351;SDS011;59159;51.652;4.864;2022-12-18T02:37:45;14.48;;;7.10;;
71351;SDS011;59159;51.652;4.864;2022-12-18T02:40:12;16.27;;;7.47;;
71351;SDS011;59159;51.652;4.864;2022-12-18T02:42:39;14.63;;;7.13;;
71351;SDS011;59159;51.652;4.864;2022-12-18T02:45:05;13.95;;;6.78;;
71351;SDS011;59159;51.652;4.864;2022-12-18T02:47:34;16.03;;;7.90;;
71351;SDS011;59159;51.652;4.864;2022-12-18T02:52:32;15.30;;;6.63;;
71351;SDS011;59159;51.652;4.864;2022-12-18T03:00:11;15.73;;;6.80;;
71351;SDS011;59159;51.652;4.864;2022-12-18T03:02:43;12.95;;;6.60;;
71351;SDS011;59159;51.652;4.864;2022-12-18T03:05:18;15.10;;;6.37;;
71351;SDS011;59159;51.652;4.864;2022-12-18T03:07:50;14.13;;;6.40;;
71351;SDS011;59159;51.652;4.864;2022-12-18T03:10:19;14.80;;;6.57;;
71351;SDS011;59159;51.652;4.864;2022-12-18T03:12:47;15.17;;;7.00;;
71351;SDS011;59159;51.652;4.864;2022-12-18T03:15:19;13.23;;;6.55;;
71351;SDS011;59159;51.652;4.864;2022-12-18T03:17:49;15.55;;;6.60;;
71351;SDS011;59159;51.652;4.864;2022-12-18T03:20:17;14.43;;;7.35;;
71351;SDS011;59159;51.652;4.864;2022-12-18T03:22:44;13.70;;;6.70;;
71351;SDS011;59159;51.652;4.864;2022-12-18T03:25:12;15.10;;;7.72;;
71351;SDS011;59159;51.652;4.864;2022-12-18T03:27:41;13.90;;;6.63;;
71351;SDS011;59159;51.652;4.864;2022-12-18T03:30:08;14.63;;;6.90;;
71351;SDS011;59159;51.652;4.864;2022-12-18T03:32:47;16.50;;;7.32;;
71351;SDS011;59159;51.652;4.864;2022-12-18T03:35:17;12.43;;;6.50;;
71351;SDS011;59159;51.652;4.864;2022-12-18T03:37:44;13.63;;;6.87;;
71351;SDS011;59159;51.652;4.864;2022-12-18T03:40:10;14.50;;;6.78;;
71351;SDS011;59159;51.652;4.864;2022-12-18T03:42:45;14.18;;;6.32;;
71351;SDS011;59159;51.652;4.864;2022-12-18T03:45:20;14.40;;;6.53;;
71351;SDS011;59159;51.652;4.864;2022-12-18T03:55:27;12.03;;;6.03;;
71351;SDS011;59159;51.652;4.864;2022-12-18T03:57:55;10.75;;;5.60;;
71351;SDS011;59159;51.652;4.864;2022-12-18T04:00:22;12.13;;;5.88;;
71351;SDS011;59159;51.652;4.864;2022-12-18T04:02:50;13.67;;;6.57;;
71351;SDS011;59159;51.652;4.864;2022-12-18T04:05:17;12.85;;;6.43;;
71351;SDS011;59159;51.652;4.864;2022-12-18T04:07:44;13.07;;;6.10;;
71351;SDS011;59159;51.652;4.864;2022-12-18T04:10:12;14.45;;;6.57;;
71351;SDS011;59159;51.652;4.864;2022-12-18T04:12:39;12.97;;;6.57;;
71351;SDS011;59159;51.652;4.864;2022-12-18T04:15:06;13.82;;;6.30;;
71351;SDS011;59159;51.652;4.864;2022-12-18T04:17:32;13.90;;;6.40;;
71351;SDS011;59159;51.652;4.864;2022-12-18T04:19:58;12.73;;;6.30;;
71351;SDS011;59159;51.652;4.864;2022-12-18T04:22:24;15.05;;;7.07;;
71351;SDS011;59159;51.652;4.864;2022-12-18T04:24:50;12.60;;;6.43;;
71351;SDS011;59159;51.652;4.864;2022-12-18T04:27:16;11.83;;;5.73;;
71351;SDS011;59159;51.652;4.864;2022-12-18T04:29:42;12.82;;;5.63;;
71351;SDS011;59159;51.652;4.864;2022-12-18T04:32:08;12.77;;;5.90;;
71351;SDS011;59159;51.652;4.864;2022-12-18T04:34:34;11.55;;;5.25;;
71351;SDS011;59159;51.652;4.864;2022-12-18T04:37:00;12.07;;;6.10;;
71351;SDS011;59159;51.652;4.864;2022-12-18T04:39:26;13.48;;;6.47;;
71351;SDS011;59159;51.652;4.864;2022-12-18T04:41:52;12.20;;;5.90;;
71351;SDS011;59159;51.652;4.864;2022-12-18T04:44:18;12.77;;;5.33;;
71351;SDS011;59159;51.652;4.864;2022-12-18T04:46:44;12.63;;;5.85;;
71351;SDS011;59159;51.652;4.864;2022-12-18T04:49:10;13.50;;;5.28;;
71351;SDS011;59159;51.652;4.864;2022-12-18T04:51:36;12.57;;;5.63;;
71351;SDS011;59159;51.652;4.864;2022-12-18T04:54:02;11.38;;;5.75;;
71351;SDS011;59159;51.652;4.864;2022-12-18T04:56:29;11.63;;;5.15;;
71351;SDS011;59159;51.652;4.864;2022-12-18T04:58:56;11.00;;;5.57;;
71351;SDS011;59159;51.652;4.864;2022-12-18T05:01:21;11.83;;;5.17;;
71351;SDS011;59159;51.652;4.864;2022-12-18T05:03:47;11.13;;;5.40;;
71351;SDS011;59159;51.652;4.864;2022-12-18T05:06:13;11.43;;;5.68;;
71351;SDS011;59159;51.652;4.864;2022-12-18T05:08:39;11.37;;;5.00;;
71351;SDS011;59159;51.652;4.864;2022-12-18T05:11:07;11.73;;;5.35;;
71351;SDS011;59159;51.652;4.864;2022-12-18T05:13:33;10.95;;;5.68;;
71351;SDS011;59159;51.652;4.864;2022-12-18T05:16:00;11.07;;;5.03;;
71351;SDS011;59159;51.652;4.864;2022-12-18T05:18:26;12.90;;;5.30;;
71351;SDS011;59159;51.652;4.864;2022-12-18T05:20:52;10.75;;;5.35;;
71351;SDS011;59159;51.652;4.864;2022-12-18T05:23:19;10.70;;;5.40;;
71351;SDS011;59159;51.652;4.864;2022-12-18T05:25:50;12.63;;;5.43;;
71351;SDS011;59159;51.652;4.864;2022-12-18T05:28:17;11.30;;;5.45;;
71351;SDS011;59159;51.652;4.864;2022-12-18T05:30:46;11.50;;;5.40;;
71351;SDS011;59159;51.652;4.864;2022-12-18T05:33:12;9.87;;;4.73;;
71351;SDS011;59159;51.652;4.864;2022-12-18T05:35:38;11.27;;;5.30;;
71351;SDS011;59159;51.652;4.864;2022-12-18T05:38:04;10.48;;;5.18;;
71351;SDS011;59159;51.652;4.864;2022-12-18T05:40:30;10.17;;;5.10;;
71351;SDS011;59159;51.652;4.864;2022-12-18T05:42:56;10.93;;;5.53;;
71351;SDS011;59159;51.652;4.864;2022-12-18T05:45:22;10.13;;;4.63;;
71351;SDS011;59159;51.652;4.864;2022-12-18T05:47:48;10.38;;;4.97;;
71351;SDS011;59159;51.652;4.864;2022-12-18T05:50:14;10.20;;;5.17;;
71351;SDS011;59159;51.652;4.864;2022-12-18T05:52:40;9.55;;;4.72;;
71351;SDS011;59159;51.652;4.864;2022-12-18T05:55:06;9.93;;;4.60;;
71351;SDS011;59159;51.652;4.864;2022-12-18T05:57:32;9.73;;;4.63;;
71351;SDS011;59159;51.652;4.864;2022-12-18T05:59:58;10.50;;;4.75;;
71351;SDS011;59159;51.652;4.864;2022-12-18T06:02:24;10.38;;;4.45;;
71351;SDS011;59159;51.652;4.864;2022-12-18T06:04:50;11.17;;;5.30;;
71351;SDS011;59159;51.652;4.864;2022-12-18T06:07:16;9.80;;;4.47;;
71351;SDS011;59159;51.652;4.864;2022-12-18T06:09:42;9.63;;;4.35;;
71351;SDS011;59159;51.652;4.864;2022-12-18T06:12:08;9.55;;;4.97;;
71351;SDS011;59159;51.652;4.864;2022-12-18T06:14:35;11.10;;;5.10;;
71351;SDS011;59159;51.652;4.864;2022-12-18T06:17:01;10.30;;;4.93;;
71351;SDS011;59159;51.652;4.864;2022-12-18T06:19:27;10.05;;;4.43;;
71351;SDS011;59159;51.652;4.864;2022-12-18T06:21:53;10.50;;;4.07;;
71351;SDS011;59159;51.652;4.864;2022-12-18T06:24:19;10.35;;;4.28;;
71351;SDS011;59159;51.652;4.864;2022-12-18T06:26:45;9.82;;;4.05;;
71351;SDS011;59159;51.652;4.864;2022-12-18T06:29:11;10.63;;;4.27;;
71351;SDS011;59159;51.652;4.864;2022-12-18T06:31:37;9.43;;;4.43;;
71351;SDS011;59159;51.652;4.864;2022-12-18T06:34:03;9.35;;;4.50;;
71351;SDS011;59159;51.652;4.864;2022-12-18T06:36:29;9.27;;;4.75;;
71351;SDS011;59159;51.652;4.864;2022-12-18T06:38:56;8.40;;;4.03;;
71351;SDS011;59159;51.652;4.864;2022-12-18T06:41:22;9.05;;;4.03;;
71351;SDS011;59159;51.652;4.864;2022-12-18T06:43:48;8.40;;;3.97;;
71351;SDS011;59159;51.652;4.864;2022-12-18T06:46:14;9.20;;;4.20;;
71351;SDS011;59159;51.652;4.864;2022-12-18T06:48:41;9.05;;;4.15;;
71351;SDS011;59159;51.652;4.864;2022-12-18T06:51:07;11.07;;;4.18;;
71351;SDS011;59159;51.652;4.864;2022-12-18T06:53:33;8.47;;;3.73;;
71351;SDS011;59159;51.652;4.864;2022-12-18T06:56:00;9.75;;;4.35;;
71351;SDS011;59159;51.652;4.864;2022-12-18T06:58:26;8.23;;;3.95;;
71351;SDS011;59159;51.652;4.864;2022-12-18T07:00:52;8.13;;;3.78;;
71351;SDS011;59159;51.652;4.864;2022-12-18T07:03:18;11.13;;;4.90;;
71351;SDS011;59159;51.652;4.864;2022-12-18T07:05:44;10.02;;;4.03;;
71351;SDS011;59159;51.652;4.864;2022-12-18T07:08:10;9.30;;;4.25;;
71351;SDS011;59159;51.652;4.864;2022-12-18T07:10:42;8.23;;;3.77;;
71351;SDS011;59159;51.652;4.864;2022-12-18T07:13:08;8.27;;;3.63;;
71351;SDS011;59159;51.652;4.864;2022-12-18T07:15:34;8.20;;;3.83;;
71351;SDS011;59159;51.652;4.864;2022-12-18T07:18:00;8.43;;;3.90;;
71351;SDS011;59159;51.652;4.864;2022-12-18T07:20:26;8.30;;;3.58;;
71351;SDS011;59159;51.652;4.864;2022-12-18T07:22:52;9.82;;;4.88;;
71351;SDS011;59159;51.652;4.864;2022-12-18T07:25:18;12.57;;;4.75;;
71351;SDS011;59159;51.652;4.864;2022-12-18T07:27:44;14.30;;;5.10;;
71351;SDS011;59159;51.652;4.864;2022-12-18T07:30:10;10.70;;;5.20;;
71351;SDS011;59159;51.652;4.864;2022-12-18T07:32:36;11.43;;;4.38;;
71351;SDS011;59159;51.652;4.864;2022-12-18T07:35:02;11.23;;;4.27;;
71351;SDS011;59159;51.652;4.864;2022-12-18T07:37:28;13.02;;;4.28;;
71351;SDS011;59159;51.652;4.864;2022-12-18T07:39:54;9.23;;;4.10;;
71351;SDS011;59159;51.652;4.864;2022-12-18T07:42:20;10.67;;;4.33;;
71351;SDS011;59159;51.652;4.864;2022-12-18T07:44:55;9.90;;;3.75;;
71351;SDS011;59159;51.652;4.864;2022-12-18T07:47:21;9.55;;;3.47;;
71351;SDS011;59159;51.652;4.864;2022-12-18T07:49:47;9.60;;;4.00;;
71351;SDS011;59159;51.652;4.864;2022-12-18T07:52:14;9.97;;;4.30;;
71351;SDS011;59159;51.652;4.864;2022-12-18T07:54:40;8.65;;;4.35;;
71351;SDS011;59159;51.652;4.864;2022-12-18T07:57:06;9.80;;;4.13;;
71351;SDS011;59159;51.652;4.864;2022-12-18T07:59:32;8.97;;;3.53;;
71351;SDS011;59159;51.652;4.864;2022-12-18T08:01:58;8.57;;;3.88;;
71351;SDS011;59159;51.652;4.864;2022-12-18T08:04:25;10.40;;;4.82;;
71351;SDS011;59159;51.652;4.864;2022-12-18T08:06:51;8.87;;;3.90;;
71351;SDS011;59159;51.652;4.864;2022-12-18T08:09:17;8.45;;;3.50;;
71351;SDS011;59159;51.652;4.864;2022-12-18T08:11:43;8.38;;;3.53;;
71351;SDS011;59159;51.652;4.864;2022-12-18T08:14:09;8.55;;;3.60;;
71351;SDS011;59159;51.652;4.864;2022-12-18T08:16:35;7.57;;;3.50;;
71351;SDS011;59159;51.652;4.864;2022-12-18T08:19:01;12.27;;;4.38;;
71351;SDS011;59159;51.652;4.864;2022-12-18T08:21:29;8.45;;;3.15;;
71351;SDS011;59159;51.652;4.864;2022-12-18T08:23:56;9.47;;;3.67;;
71351;SDS011;59159;51.652;4.864;2022-12-18T08:26:23;7.07;;;3.20;;
71351;SDS011;59159;51.652;4.864;2022-12-18T08:28:52;8.43;;;3.60;;
71351;SDS011;59159;51.652;4.864;2022-12-18T08:31:19;8.43;;;3.50;;
71351;SDS011;59159;51.652;4.864;2022-12-18T08:33:45;8.32;;;3.78;;
71351;SDS011;59159;51.652;4.864;2022-12-18T08:36:17;10.85;;;3.35;;
71351;SDS011;59159;51.652;4.864;2022-12-18T08:38:44;9.65;;;3.75;;
71351;SDS011;59159;51.652;4.864;2022-12-18T08:41:11;9.00;;;3.77;;
71351;SDS011;59159;51.652;4.864;2022-12-18T08:43:37;8.73;;;2.97;;
71351;SDS011;59159;51.652;4.864;2022-12-18T08:46:22;8.90;;;3.35;;
71351;SDS011;59159;51.652;4.864;2022-12-18T08:48:52;9.40;;;3.93;;
71351;SDS011;59159;51.652;4.864;2022-12-18T08:51:18;8.80;;;3.40;;
71351;SDS011;59159;51.652;4.864;2022-12-18T08:53:44;8.07;;;3.38;;
71351;SDS011;59159;51.652;4.864;2022-12-18T08:56:13;8.07;;;3.27;;
71351;SDS011;59159;51.652;4.864;2022-12-18T08:58:40;8.38;;;3.28;;
71351;SDS011;59159;51.652;4.864;2022-12-18T09:01:07;8.52;;;3.42;;
71351;SDS011;59159;51.652;4.864;2022-12-18T09:03:36;6.72;;;2.80;;
71351;SDS011;59159;51.652;4.864;2022-12-18T09:06:02;7.97;;;3.77;;
71351;SDS011;59159;51.652;4.864;2022-12-18T09:08:29;6.95;;;3.13;;
71351;SDS011;59159;51.652;4.864;2022-12-18T09:10:55;8.80;;;3.63;;
71351;SDS011;59159;51.652;4.864;2022-12-18T09:13:21;7.50;;;3.30;;
71351;SDS011;59159;51.652;4.864;2022-12-18T09:15:49;8.68;;;3.85;;
71351;SDS011;59159;51.652;4.864;2022-12-18T09:18:16;7.43;;;3.33;;
71351;SDS011;59159;51.652;4.864;2022-12-18T09:20:42;6.77;;;2.77;;
71351;SDS011;59159;51.652;4.864;2022-12-18T09:23:08;9.07;;;3.25;;
71351;SDS011;59159;51.652;4.864;2022-12-18T09:25:34;8.38;;;3.70;;
71351;SDS011;59159;51.652;4.864;2022-12-18T09:28:04;7.53;;;3.00;;
71351;SDS011;59159;51.652;4.864;2022-12-18T09:30:31;8.00;;;3.37;;
71351;SDS011;59159;51.652;4.864;2022-12-18T09:32:59;8.00;;;3.45;;
71351;SDS011;59159;51.652;4.864;2022-12-18T09:35:25;7.25;;;3.35;;
71351;SDS011;59159;51.652;4.864;2022-12-18T09:37:53;10.77;;;3.77;;
71351;SDS011;59159;51.652;4.864;2022-12-18T09:40:21;7.72;;;3.72;;
71351;SDS011;59159;51.652;4.864;2022-12-18T09:42:59;8.45;;;3.42;;
71351;SDS011;59159;51.652;4.864;2022-12-18T09:45:26;9.00;;;3.50;;
71351;SDS011;59159;51.652;4.864;2022-12-18T09:47:53;9.68;;;3.30;;
71351;SDS011;59159;51.652;4.864;2022-12-18T09:52:46;8.43;;;3.42;;
71351;SDS011;59159;51.652;4.864;2022-12-18T09:57:53;8.02;;;2.83;;
71351;SDS011;59159;51.652;4.864;2022-12-18T10:00:26;7.85;;;3.45;;
71351;SDS011;59159;51.652;4.864;2022-12-18T10:02:53;7.90;;;3.40;;
71351;SDS011;59159;51.652;4.864;2022-12-18T10:05:27;8.75;;;2.95;;
71351;SDS011;59159;51.652;4.864;2022-12-18T10:08:02;8.25;;;3.33;;
71351;SDS011;59159;51.652;4.864;2022-12-18T10:16:09;8.43;;;3.20;;
71351;SDS011;59159;51.652;4.864;2022-12-18T10:21:03;8.00;;;3.37;;
71351;SDS011;59159;51.652;4.864;2022-12-18T10:23:39;6.63;;;2.95;;
71351;SDS011;59159;51.652;4.864;2022-12-18T10:26:08;8.18;;;3.20;;
71351;SDS011;59159;51.652;4.864;2022-12-18T10:28:37;7.67;;;3.43;;
71351;SDS011;59159;51.652;4.864;2022-12-18T10:31:07;7.82;;;3.22;;
71351;SDS011;59159;51.652;4.864;2022-12-18T10:33:38;7.97;;;3.10;;
71351;SDS011;59159;51.652;4.864;2022-12-18T10:36:04;6.57;;;2.63;;
71351;SDS011;59159;51.652;4.864;2022-12-18T10:38:31;8.30;;;3.00;;
71351;SDS011;59159;51.652;4.864;2022-12-18T10:40:59;8.80;;;3.42;;
71351;SDS011;59159;51.652;4.864;2022-12-18T10:43:30;7.40;;;3.10;;
71351;SDS011;59159;51.652;4.864;2022-12-18T10:51:01;7.32;;;3.05;;
71351;SDS011;59159;51.652;4.864;2022-12-18T10:53:29;7.47;;;2.80;;
71351;SDS011;59159;51.652;4.864;2022-12-18T10:55:57;7.10;;;2.90;;
71351;SDS011;59159;51.652;4.864;2022-12-18T11:03:36;8.15;;;3.38;;
71351;SDS011;59159;51.652;4.864;2022-12-18T11:06:04;7.43;;;3.45;;
71351;SDS011;59159;51.652;4.864;2022-12-18T11:08:30;7.78;;;3.35;;
71351;SDS011;59159;51.652;4.864;2022-12-18T11:10:56;8.00;;;3.17;;
71351;SDS011;59159;51.652;4.864;2022-12-18T11:13:23;9.13;;;3.50;;
71351;SDS011;59159;51.652;4.864;2022-12-18T11:15:50;7.60;;;3.40;;
71351;SDS011;59159;51.652;4.864;2022-12-18T11:20:52;7.57;;;3.00;;
71351;SDS011;59159;51.652;4.864;2022-12-18T11:23:18;7.78;;;3.10;;
71351;SDS011;59159;51.652;4.864;2022-12-18T11:25:57;7.67;;;3.20;;
71351;SDS011;59159;51.652;4.864;2022-12-18T11:28:25;7.47;;;3.00;;
71351;SDS011;59159;51.652;4.864;2022-12-18T11:31:11;7.07;;;3.00;;
71351;SDS011;59159;51.652;4.864;2022-12-18T11:33:40;7.35;;;3.25;;
71351;SDS011;59159;51.652;4.864;2022-12-18T11:36:07;8.97;;;3.40;;
71351;SDS011;59159;51.652;4.864;2022-12-18T11:38:35;9.65;;;2.95;;
71351;SDS011;59159;51.652;4.864;2022-12-18T11:41:06;7.75;;;3.05;;
71351;SDS011;59159;51.652;4.864;2022-12-18T11:46:32;6.50;;;2.80;;
71351;SDS011;59159;51.652;4.864;2022-12-18T11:54:14;8.52;;;3.47;;
71351;SDS011;59159;51.652;4.864;2022-12-18T11:56:47;8.18;;;3.40;;
71351;SDS011;59159;51.652;4.864;2022-12-18T12:01:50;7.97;;;3.23;;
71351;SDS011;59159;51.652;4.864;2022-12-18T12:07:12;7.07;;;2.72;;
71351;SDS011;59159;51.652;4.864;2022-12-18T12:12:16;7.68;;;3.05;;
71351;SDS011;59159;51.652;4.864;2022-12-18T12:14:49;8.45;;;3.20;;
71351;SDS011;59159;51.652;4.864;2022-12-18T12:17:36;7.37;;;3.07;;
71351;SDS011;59159;51.652;4.864;2022-12-18T12:20:07;7.13;;;3.08;;
71351;SDS011;59159;51.652;4.864;2022-12-18T12:22:41;8.55;;;3.22;;
71351;SDS011;59159;51.652;4.864;2022-12-18T12:25:14;7.60;;;3.55;;
71351;SDS011;59159;51.652;4.864;2022-12-18T12:28:07;7.60;;;3.23;;
71351;SDS011;59159;51.652;4.864;2022-12-18T12:36:07;7.60;;;2.90;;
71351;SDS011;59159;51.652;4.864;2022-12-18T12:38:46;11.80;;;3.28;;
71351;SDS011;59159;51.652;4.864;2022-12-18T12:41:17;8.55;;;2.85;;
71351;SDS011;59159;51.652;4.864;2022-12-18T12:44:03;7.47;;;2.70;;
71351;SDS011;59159;51.652;4.864;2022-12-18T12:46:31;8.18;;;3.08;;
71351;SDS011;59159;51.652;4.864;2022-12-18T12:49:04;9.82;;;3.10;;
71351;SDS011;59159;51.652;4.864;2022-12-18T12:51:37;9.55;;;3.22;;
71351;SDS011;59159;51.652;4.864;2022-12-18T12:54:05;7.47;;;3.07;;
71351;SDS011;59159;51.652;4.864;2022-12-18T13:01:49;9.27;;;2.90;;
71351;SDS011;59159;51.652;4.864;2022-12-18T13:09:36;7.50;;;3.27;;
71351;SDS011;59159;51.652;4.864;2022-12-18T13:12:23;7.40;;;2.75;;
71351;SDS011;59159;51.652;4.864;2022-12-18T13:15:20;6.85;;;2.65;;
71351;SDS011;59159;51.652;4.864;2022-12-18T13:17:47;6.95;;;3.03;;
71351;SDS011;59159;51.652;4.864;2022-12-18T13:20:14;8.80;;;3.90;;
71351;SDS011;59159;51.652;4.864;2022-12-18T13:22:44;7.68;;;2.70;;
71351;SDS011;59159;51.652;4.864;2022-12-18T13:25:27;7.10;;;2.70;;
71351;SDS011;59159;51.652;4.864;2022-12-18T13:27:59;7.40;;;2.80;;
71351;SDS011;59159;51.652;4.864;2022-12-18T13:45:45;8.00;;;3.33;;
71351;SDS011;59159;51.652;4.864;2022-12-18T13:48:18;10.43;;;3.53;;
71351;SDS011;59159;51.652;4.864;2022-12-18T13:50:48;7.60;;;3.28;;
71351;SDS011;59159;51.652;4.864;2022-12-18T13:53:21;7.40;;;3.20;;
71351;SDS011;59159;51.652;4.864;2022-12-18T13:55:49;7.50;;;2.78;;
71351;SDS011;59159;51.652;4.864;2022-12-18T13:58:15;7.57;;;2.90;;
71351;SDS011;59159;51.652;4.864;2022-12-18T14:00:42;7.57;;;3.10;;
71351;SDS011;59159;51.652;4.864;2022-12-18T14:03:16;7.82;;;2.92;;
71351;SDS011;59159;51.652;4.864;2022-12-18T14:05:43;7.93;;;3.40;;
71351;SDS011;59159;51.652;4.864;2022-12-18T14:08:12;8.68;;;3.30;;
71351;SDS011;59159;51.652;4.864;2022-12-18T14:10:39;7.90;;;3.40;;
71351;SDS011;59159;51.652;4.864;2022-12-18T14:13:06;7.95;;;3.03;;
71351;SDS011;59159;51.652;4.864;2022-12-18T14:15:43;7.70;;;3.05;;
71351;SDS011;59159;51.652;4.864;2022-12-18T14:20:50;7.20;;;3.30;;
71351;SDS011;59159;51.652;4.864;2022-12-18T14:23:29;8.25;;;3.58;;
71351;SDS011;59159;51.652;4.864;2022-12-18T14:25:56;7.87;;;3.30;;
71351;SDS011;59159;51.652;4.864;2022-12-18T14:28:22;7.35;;;2.97;;
71351;SDS011;59159;51.652;4.864;2022-12-18T14:30:49;8.98;;;3.42;;
71351;SDS011;59159;51.652;4.864;2022-12-18T14:33:22;7.53;;;3.08;;
71351;SDS011;59159;51.652;4.864;2022-12-18T14:35:57;7.23;;;2.93;;
71351;SDS011;59159;51.652;4.864;2022-12-18T14:38:25;7.30;;;3.10;;
71351;SDS011;59159;51.652;4.864;2022-12-18T14:40:52;7.40;;;2.67;;
71351;SDS011;59159;51.652;4.864;2022-12-18T14:43:18;7.27;;;2.87;;
71351;SDS011;59159;51.652;4.864;2022-12-18T14:45:44;8.07;;;3.17;;
71351;SDS011;59159;51.652;4.864;2022-12-18T14:50:37;7.37;;;2.80;;
71351;SDS011;59159;51.652;4.864;2022-12-18T14:53:03;7.18;;;3.05;;
71351;SDS011;59159;51.652;4.864;2022-12-18T14:55:34;8.73;;;3.33;;
71351;SDS011;59159;51.652;4.864;2022-12-18T14:58:00;7.30;;;3.13;;
71351;SDS011;59159;51.652;4.864;2022-12-18T15:00:27;7.47;;;2.90;;
71351;SDS011;59159;51.652;4.864;2022-12-18T15:02:54;7.32;;;3.42;;
71351;SDS011;59159;51.652;4.864;2022-12-18T15:05:25;7.20;;;3.28;;
71351;SDS011;59159;51.652;4.864;2022-12-18T15:07:53;7.77;;;3.07;;
71351;SDS011;59159;51.652;4.864;2022-12-18T15:10:20;7.18;;;2.72;;
71351;SDS011;59159;51.652;4.864;2022-12-18T15:13:05;9.93;;;3.78;;
71351;SDS011;59159;51.652;4.864;2022-12-18T15:18:04;9.25;;;3.85;;
71351;SDS011;59159;51.652;4.864;2022-12-18T15:23:16;7.43;;;3.17;;
71351;SDS011;59159;51.652;4.864;2022-12-18T15:25:43;11.10;;;3.67;;
71351;SDS011;59159;51.652;4.864;2022-12-18T15:28:16;7.70;;;3.10;;
71351;SDS011;59159;51.652;4.864;2022-12-18T15:30:57;7.63;;;3.30;;
71351;SDS011;59159;51.652;4.864;2022-12-18T15:33:24;8.07;;;3.10;;
71351;SDS011;59159;51.652;4.864;2022-12-18T15:35:57;8.13;;;3.53;;
71351;SDS011;59159;51.652;4.864;2022-12-18T15:38:23;8.00;;;3.00;;
71351;SDS011;59159;51.652;4.864;2022-12-18T15:40:49;7.17;;;3.17;;
71351;SDS011;59159;51.652;4.864;2022-12-18T15:43:15;6.57;;;2.80;;
71351;SDS011;59159;51.652;4.864;2022-12-18T15:46:01;7.90;;;3.22;;
71351;SDS011;59159;51.652;4.864;2022-12-18T15:48:27;12.25;;;3.15;;
71351;SDS011;59159;51.652;4.864;2022-12-18T15:50:53;7.43;;;3.30;;
71351;SDS011;59159;51.652;4.864;2022-12-18T15:53:21;7.43;;;3.00;;
71351;SDS011;59159;51.652;4.864;2022-12-18T15:55:47;7.40;;;2.70;;
71351;SDS011;59159;51.652;4.864;2022-12-18T15:58:32;8.17;;;3.23;;
71351;SDS011;59159;51.652;4.864;2022-12-18T16:00:58;7.57;;;2.88;;
71351;SDS011;59159;51.652;4.864;2022-12-18T16:03:25;8.20;;;3.28;;
71351;SDS011;59159;51.652;4.864;2022-12-18T16:05:51;6.80;;;2.97;;
71351;SDS011;59159;51.652;4.864;2022-12-18T16:08:17;9.73;;;2.85;;
71351;SDS011;59159;51.652;4.864;2022-12-18T16:10:43;8.73;;;3.33;;
71351;SDS011;59159;51.652;4.864;2022-12-18T16:13:20;8.10;;;3.08;;
71351;SDS011;59159;51.652;4.864;2022-12-18T16:15:46;9.23;;;3.60;;
71351;SDS011;59159;51.652;4.864;2022-12-18T16:18:12;8.20;;;3.50;;
71351;SDS011;59159;51.652;4.864;2022-12-18T16:20:38;6.75;;;3.08;;
71351;SDS011;59159;51.652;4.864;2022-12-18T16:23:04;7.47;;;3.17;;
71351;SDS011;59159;51.652;4.864;2022-12-18T16:25:30;8.82;;;4.07;;
71351;SDS011;59159;51.652;4.864;2022-12-18T16:27:56;8.73;;;3.88;;
71351;SDS011;59159;51.652;4.864;2022-12-18T16:30:23;8.80;;;3.83;;
71351;SDS011;59159;51.652;4.864;2022-12-18T16:32:52;9.05;;;3.83;;
71351;SDS011;59159;51.652;4.864;2022-12-18T16:35:18;8.13;;;3.72;;
71351;SDS011;59159;51.652;4.864;2022-12-18T16:37:44;9.25;;;4.05;;
71351;SDS011;59159;51.652;4.864;2022-12-18T16:40:11;9.83;;;3.93;;
71351;SDS011;59159;51.652;4.864;2022-12-18T16:42:38;8.07;;;3.70;;